Time;durP1;ratioP1;P1;durP2;ratioP2;P2;SDS_P1;SDS_P2;PMS_P1;PMS_P2;Temp;Humidity;BMP_temperature;BMP_pressure;BME280_temperature;BME280_humidity;BME280_pressure;Samples;Min_cycle;Max_cycle;Signal;HPM_P1;HPM_P2
2022/01/06 00:02:25;;;;;;;29.27;15.85;;;;;;;6.20;100.00;99557.20;1693243;84;21063;-68
2022/01/06 00:04:53;;;;;;;34.78;17.05;;;;;;;6.21;100.00;99548.66;1668921;84;21032;-68
2022/01/06 00:07:20;;;;;;;35.75;17.45;;;;;;;6.17;100.00;99548.40;1696843;84;21114;-68
2022/01/06 00:09:48;;;;;;;34.92;18.75;;;;;;;6.21;100.00;99552.48;1670311;84;21571;-68
2022/01/06 00:12:18;;;;;;;33.55;17.40;;;;;;;6.18;100.00;99554.73;1691287;83;21544;-68
2022/01/06 00:15:03;;;;;;;32.93;17.02;;;;;;;6.16;100.00;99555.24;1690900;83;21138;-68
2022/01/06 00:17:41;;;;;;;31.57;16.05;;;;;;;6.14;100.00;99544.68;1692441;84;21056;-68
2022/01/06 00:25:25;;;;;;;37.48;18.07;;;;;;;6.13;100.00;99550.24;1691681;84;21521;-68
2022/01/06 00:27:52;;;;;;;33.83;16.42;;;;;;;6.10;100.00;99549.08;1692114;84;21066;-68
2022/01/06 00:30:18;;;;;;;32.08;15.75;;;;;;;6.04;100.00;99554.89;1693261;84;21075;-68
2022/01/06 00:32:46;;;;;;;32.13;16.32;;;;;;;6.04;100.00;99557.45;1696242;84;21164;-68
2022/01/06 00:35:13;;;;;;;32.45;17.30;;;;;;;6.03;100.00;99564.74;1690379;83;21032;-68
2022/01/06 00:37:41;;;;;;;35.88;17.87;;;;;;;6.04;100.00;99555.72;1696348;84;21559;-68
2022/01/06 00:40:09;;;;;;;42.45;21.17;;;;;;;6.05;100.00;99554.84;1691358;84;21115;-68
2022/01/06 00:42:36;;;;;;;39.90;21.57;;;;;;;6.01;100.00;99546.92;1692957;83;21080;-68
2022/01/06 00:45:05;;;;;;;41.68;22.25;;;;;;;5.98;100.00;99538.08;1691091;83;21079;-68
2022/01/06 00:47:33;;;;;;;33.00;18.05;;;;;;;6.11;100.00;99538.44;1690853;83;21575;-68
2022/01/06 00:50:00;;;;;;;28.70;16.07;;;;;;;6.15;100.00;99546.36;1695974;83;21090;-68
2022/01/06 00:52:27;;;;;;;28.47;15.65;;;;;;;6.10;100.00;99541.41;1696040;84;21087;-68
2022/01/06 00:54:53;;;;;;;29.32;14.83;;;;;;;6.13;100.00;99540.02;1691917;84;22201;-68
2022/01/06 00:57:20;;;;;;;26.07;14.98;;;;;;;6.08;100.00;99535.53;1693778;84;21111;-68
2022/01/06 00:59:47;;;;;;;24.70;14.07;;;;;;;6.12;100.00;99535.79;1691797;84;21555;-68
2022/01/06 01:02:13;;;;;;;27.95;15.00;;;;;;;6.18;100.00;99530.45;1692477;84;21083;-68
2022/01/06 01:04:40;;;;;;;33.98;16.42;;;;;;;6.11;100.00;99529.03;1691113;83;21036;-68
2022/01/06 01:07:07;;;;;;;28.98;15.70;;;;;;;6.19;100.00;99530.00;1691314;83;21583;-68
2022/01/06 01:09:35;;;;;;;26.95;15.10;;;;;;;6.24;100.00;99529.80;1691011;83;21062;-68
2022/01/06 01:12:04;;;;;;;27.45;14.53;;;;;;;6.23;100.00;99525.60;1695397;83;21520;-68
2022/01/06 01:14:44;;;;;;;29.85;15.98;;;;;;;6.15;100.00;99530.56;1695115;83;21048;-69
2022/01/06 01:17:04;;;;;;;30.80;16.73;;;;;;;6.18;100.00;99529.60;1691516;84;21079;-69
2022/01/06 01:19:31;;;;;;;30.90;17.02;;;;;;;6.10;100.00;99531.64;1691198;83;21047;-68
2022/01/06 01:21:58;;;;;;;27.13;15.15;;;;;;;6.14;100.00;99531.91;1690952;83;21083;-68
2022/01/06 01:24:26;;;;;;;27.80;15.50;;;;;;;6.15;100.00;99528.47;1693473;83;21091;-68
2022/01/06 01:26:52;;;;;;;26.10;14.40;;;;;;;6.18;100.00;99533.44;1698006;83;21559;-67
2022/01/06 01:29:19;;;;;;;25.92;14.90;;;;;;;6.09;100.00;99534.66;1693686;83;21067;-68
2022/01/06 01:31:54;;;;;;;26.35;14.20;;;;;;;6.07;100.00;99536.44;1692499;84;21068;-68
2022/01/06 01:34:23;;;;;;;31.40;16.62;;;;;;;6.04;100.00;99533.17;1696305;83;21535;-69
2022/01/06 01:36:48;;;;;;;40.85;20.80;;;;;;;6.00;100.00;99542.27;1690816;83;21087;-68
2022/01/06 01:39:15;;;;;;;42.90;22.82;;;;;;;6.01;100.00;99534.14;1667454;85;21526;-68
2022/01/06 01:41:42;;;;;;;35.50;20.20;;;;;;;6.06;100.00;99530.11;1690420;83;21026;-68
2022/01/06 01:44:15;;;;;;;33.75;20.00;;;;;;;6.06;100.00;99523.27;1691030;83;21182;-68
2022/01/06 01:46:51;;;;;;;30.90;17.57;;;;;;;6.13;100.00;99521.31;1690976;84;21075;-68
2022/01/06 01:51:52;;;;;;;26.23;15.35;;;;;;;6.13;100.00;99514.92;1695255;84;21075;-67
2022/01/06 01:54:19;;;;;;;24.77;13.93;;;;;;;6.11;100.00;99517.54;1695354;84;21083;-68
2022/01/06 01:56:45;;;;;;;27.75;15.58;;;;;;;6.07;100.00;99517.28;1692050;83;21060;-68
2022/01/06 01:59:13;;;;;;;25.32;14.25;;;;;;;6.07;100.00;99523.67;1692329;84;21533;-69
2022/01/06 02:01:42;;;;;;;27.90;15.60;;;;;;;6.03;100.00;99532.81;1691926;84;21020;-68
2022/01/06 02:04:10;;;;;;;30.37;16.77;;;;;;;5.99;100.00;99537.20;1695153;83;21090;-68
2022/01/06 02:06:37;;;;;;;36.17;18.98;;;;;;;6.04;100.00;99522.95;1691015;84;21075;-68
2022/01/06 02:09:04;;;;;;;29.63;16.60;;;;;;;6.01;100.00;99514.98;1691387;84;21536;-68
2022/01/06 02:11:32;;;;;;;30.70;17.20;;;;;;;6.04;100.00;99513.56;1693339;84;21112;-69
2022/01/06 02:14:00;;;;;;;29.37;16.65;;;;;;;6.03;100.00;99508.54;1690827;83;21087;-68
2022/01/06 02:16:28;;;;;;;31.12;16.70;;;;;;;6.00;100.00;99507.77;1690821;84;21548;-68
2022/01/06 02:18:55;;;;;;;29.32;15.98;;;;;;;6.04;100.00;99507.63;1692261;84;20996;-68
2022/01/06 02:21:22;;;;;;;25.70;14.80;;;;;;;6.09;100.00;99498.06;1691274;83;21055;-67
2022/01/06 02:23:49;;;;;;;28.85;16.15;;;;;;;6.03;100.00;99504.25;1696265;84;21582;-68
2022/01/06 02:26:16;;;;;;;27.37;15.65;;;;;;;6.07;100.00;99505.78;1690880;84;21071;-68
2022/01/06 02:28:43;;;;;;;30.00;16.20;;;;;;;6.10;100.00;99505.64;1693041;84;21082;-68
2022/01/06 02:31:10;;;;;;;30.60;16.95;;;;;;;6.09;100.00;99500.62;1692729;84;21122;-68
2022/01/06 02:33:37;;;;;;;33.48;17.70;;;;;;;6.17;100.00;99496.84;1692696;84;21048;-68
2022/01/06 02:36:05;;;;;;;31.17;16.93;;;;;;;6.15;100.00;99500.36;1693678;84;21493;-68
2022/01/06 02:38:33;;;;;;;30.62;17.77;;;;;;;6.17;100.00;99504.50;1691970;83;21079;-68
2022/01/06 02:41:00;;;;;;;28.85;16.97;;;;;;;6.18;100.00;99510.44;1690925;84;21091;-68
2022/01/06 02:43:29;;;;;;;31.50;17.48;;;;;;;6.21;100.00;99517.53;1694853;83;21571;-68
2022/01/06 02:45:56;;;;;;;29.95;16.57;;;;;;;6.24;100.00;99510.63;1691979;84;21051;-68
2022/01/06 02:48:23;;;;;;;28.47;16.12;;;;;;;6.22;100.00;99523.47;1695640;84;21568;-68
2022/01/06 02:50:52;;;;;;;29.12;16.80;;;;;;;6.25;100.00;99512.31;1696108;84;21035;-68
2022/01/06 02:53:20;;;;;;;29.92;16.42;;;;;;;6.21;100.00;99504.76;1692343;84;21060;-68
2022/01/06 02:55:51;;;;;;;25.45;15.53;;;;;;;6.20;100.00;99511.20;1691698;84;21071;-69
2022/01/06 02:58:18;;;;;;;28.75;16.65;;;;;;;6.17;100.00;99524.12;1691584;84;21112;-69
2022/01/06 03:00:46;;;;;;;31.33;16.93;;;;;;;6.12;100.00;99528.13;1697506;84;21559;-68
2022/01/06 03:03:13;;;;;;;28.35;15.50;;;;;;;6.12;100.00;99526.02;1693102;84;21039;-68
2022/01/06 03:05:41;;;;;;;29.67;16.23;;;;;;;6.14;100.00;99525.52;1697319;84;21039;-68
2022/01/06 03:08:07;;;;;;;31.80;17.65;;;;;;;6.07;100.00;99523.67;1693345;83;21067;-68
2022/01/06 03:10:38;;;;;;;36.25;19.48;;;;;;;6.03;100.00;99531.53;1667373;85;21055;-68
2022/01/06 03:13:04;;;;;;;28.40;16.20;;;;;;;5.99;100.00;99534.20;1694441;84;21538;-68
2022/01/06 03:15:31;;;;;;;31.10;17.23;;;;;;;6.01;100.00;99534.96;1692320;83;21618;-69
2022/01/06 03:17:58;;;;;;;30.65;16.35;;;;;;;5.99;100.00;99530.81;1690967;85;21146;-68
2022/01/06 03:20:29;;;;;;;38.00;20.43;;;;;;;5.94;100.00;99530.13;1694014;84;21035;-69
2022/01/06 03:22:58;;;;;;;39.80;20.55;;;;;;;6.03;100.00;99530.25;1696554;84;21051;-69
2022/01/06 03:25:25;;;;;;;43.20;21.02;;;;;;;6.08;100.00;99520.20;1692715;84;21035;-68
2022/01/06 03:27:53;;;;;;;46.50;23.40;;;;;;;6.11;100.00;99519.27;1693299;83;21051;-68
2022/01/06 03:30:23;;;;;;;50.40;25.70;;;;;;;6.14;100.00;99528.07;1693541;84;21039;-68
2022/01/06 03:32:52;;;;;;;59.23;29.82;;;;;;;6.11;100.00;99523.92;1696940;84;21071;-68
2022/01/06 03:35:23;;;;;;;50.55;25.72;;;;;;;6.17;100.00;99527.95;1696536;84;21504;-68
2022/01/06 03:37:50;;;;;;;48.65;24.43;;;;;;;6.19;100.00;99524.44;1691991;84;21543;-69
2022/01/06 03:40:17;;;;;;;48.13;24.57;;;;;;;6.29;100.00;99525.34;1691268;85;21031;-68
2022/01/06 03:42:45;;;;;;;40.98;19.85;;;;;;;6.36;100.00;99526.73;1691146;84;21606;-68
2022/01/06 03:45:16;;;;;;;37.23;20.00;;;;;;;6.36;100.00;99529.28;1691033;83;21083;-68
2022/01/06 03:47:44;;;;;;;34.58;19.87;;;;;;;6.30;100.00;99529.54;1667443;84;21067;-68
2022/01/06 03:50:14;;;;;;;31.52;18.25;;;;;;;6.25;100.00;99530.20;1691248;84;21054;-68
2022/01/06 03:52:42;;;;;;;30.85;17.20;;;;;;;6.19;100.00;99526.17;1694389;84;21651;-68
2022/01/06 03:55:13;;;;;;;27.70;16.25;;;;;;;6.20;100.00;99520.15;1692609;84;21086;-68
2022/01/06 03:57:41;;;;;;;32.63;17.65;;;;;;;6.19;100.00;99522.34;1690155;83;21055;-68
2022/01/06 04:00:13;;;;;;;33.42;18.07;;;;;;;6.23;100.00;99519.21;1688158;84;21531;-69
2022/01/06 04:02:41;;;;;;;47.70;24.32;;;;;;;6.26;100.00;99516.52;1691122;84;21040;-68
2022/01/06 04:05:10;;;;;;;41.42;21.07;;;;;;;6.26;100.00;99522.90;1695914;83;21058;-68
2022/01/06 04:07:39;;;;;;;38.05;19.95;;;;;;;6.28;100.00;99519.83;1692017;84;21008;-68
2022/01/06 04:10:08;;;;;;;32.28;18.07;;;;;;;6.28;100.00;99524.95;1696466;83;21582;-69
2022/01/06 04:12:37;;;;;;;31.82;18.57;;;;;;;6.25;100.00;99530.20;1694106;84;21015;-69
2022/01/06 04:15:11;;;;;;;32.42;18.82;;;;;;;6.27;100.00;99522.84;1691153;83;21119;-68
2022/01/06 04:17:40;;;;;;;34.70;17.82;;;;;;;6.35;100.00;99523.80;1691263;83;21527;-68
2022/01/06 04:20:10;;;;;;;30.55;17.80;;;;;;;6.38;100.00;99513.43;1691090;83;21111;-68
2022/01/06 04:22:37;;;;;;;27.80;17.25;;;;;;;6.39;100.00;99510.81;1694655;83;21027;-68
2022/01/06 04:25:06;;;;;;;29.50;17.17;;;;;;;6.47;100.00;99518.59;1692764;84;21070;-68
2022/01/06 04:27:34;;;;;;;34.98;18.98;;;;;;;6.43;100.00;99516.64;1693381;83;21088;-68
2022/01/06 04:30:06;;;;;;;47.45;22.58;;;;;;;6.37;100.00;99527.13;1694192;83;21646;-68
2022/01/06 04:32:35;;;;;;;45.12;22.42;;;;;;;6.38;100.00;99530.05;1691432;84;21032;-68
2022/01/06 04:35:05;;;;;;;39.70;20.48;;;;;;;6.47;100.00;99525.84;1691577;84;21107;-68
2022/01/06 04:37:34;;;;;;;37.17;19.62;;;;;;;6.48;100.00;99531.31;1692771;84;21032;-68
2022/01/06 04:40:01;;;;;;;34.43;18.32;;;;;;;6.53;100.00;99529.41;1693521;84;21154;-68
2022/01/06 04:42:31;;;;;;;34.85;19.10;;;;;;;6.50;100.00;99542.30;1689262;84;21125;-68
2022/01/06 04:44:59;;;;;;;33.88;19.52;;;;;;;6.46;100.00;99536.94;1668170;84;21011;-68
2022/01/06 04:47:26;;;;;;;30.43;18.02;;;;;;;6.42;100.00;99537.52;1696890;83;21003;-69
2022/01/06 04:49:52;;;;;;;41.75;21.30;;;;;;;6.41;100.00;99535.87;1695689;83;21058;-68
2022/01/06 04:52:19;;;;;;;49.42;26.07;;;;;;;6.41;100.00;99540.16;1691083;83;21075;-68
2022/01/06 04:54:46;;;;;;;41.58;21.65;;;;;;;6.40;100.00;99535.92;1694643;84;21059;-68
2022/01/06 04:57:13;;;;;;;37.90;20.85;;;;;;;6.31;100.00;99535.87;1691229;83;21095;-68
2022/01/06 04:59:39;;;;;;;32.67;19.67;;;;;;;6.35;100.00;99545.08;1694638;84;21008;-68
2022/01/06 05:02:08;;;;;;;35.48;19.67;;;;;;;6.42;100.00;99536.69;1690881;84;21043;-68
2022/01/06 05:04:34;;;;;;;33.28;19.00;;;;;;;6.47;100.00;99533.92;1691181;83;21028;-68
2022/01/06 05:07:01;;;;;;;32.50;19.00;;;;;;;6.51;100.00;99536.73;1690828;84;21024;-68
2022/01/06 05:09:28;;;;;;;34.60;19.27;;;;;;;6.45;100.00;99540.83;1692768;83;21035;-68
2022/01/06 05:11:55;;;;;;;36.28;18.95;;;;;;;6.38;100.00;99535.98;1695328;84;21063;-69
2022/01/06 05:14:22;;;;;;;34.40;18.85;;;;;;;6.29;100.00;99547.06;1691352;84;21409;-68
2022/01/06 05:16:49;;;;;;;32.50;18.67;;;;;;;6.37;100.00;99555.24;1691093;84;21547;-68
2022/01/06 05:19:16;;;;;;;30.75;17.50;;;;;;;6.41;100.00;99555.50;1691180;83;20988;-68
2022/01/06 05:21:44;;;;;;;33.40;18.00;;;;;;;6.34;100.00;99557.91;1690677;85;21095;-68
2022/01/06 05:24:15;;;;;;;32.33;18.75;;;;;;;6.29;100.00;99559.39;1693131;84;21107;-69
2022/01/06 05:26:43;;;;;;;39.50;22.25;;;;;;;6.32;100.00;99566.09;1693190;84;21492;-68
2022/01/06 05:29:12;;;;;;;35.23;20.75;;;;;;;6.30;100.00;99580.66;1692408;84;21052;-68
2022/01/06 05:31:41;;;;;;;33.92;18.48;;;;;;;6.25;100.00;99583.41;1694557;84;21059;-69
2022/01/06 05:34:08;;;;;;;31.95;18.25;;;;;;;6.21;100.00;99584.44;1694902;84;21590;-68
2022/01/06 05:36:35;;;;;;;32.65;18.15;;;;;;;6.17;100.00;99574.77;1690837;84;21056;-68
2022/01/06 05:39:03;;;;;;;29.63;17.80;;;;;;;6.21;100.00;99578.87;1692455;84;21579;-68
2022/01/06 05:41:30;;;;;;;28.25;17.35;;;;;;;6.23;100.00;99584.38;1692052;84;21484;-68
2022/01/06 05:43:57;;;;;;;31.10;17.92;;;;;;;6.19;100.00;99593.44;1692050;83;21044;-68
2022/01/06 05:46:24;;;;;;;40.83;20.55;;;;;;;6.19;100.00;99589.59;1692377;84;21055;-67
2022/01/06 05:48:53;;;;;;;51.33;24.87;;;;;;;6.15;100.00;99577.84;1696353;84;21554;-68
2022/01/06 05:51:20;;;;;;;56.75;29.02;;;;;;;6.21;100.00;99587.81;1691142;84;21079;-67
2022/01/06 05:53:49;;;;;;;51.88;26.85;;;;;;;6.23;100.00;99589.03;1691231;84;21020;-68
2022/01/06 05:56:16;;;;;;;42.60;24.40;;;;;;;6.23;100.00;99592.05;1693828;84;21079;-68
2022/01/06 05:58:43;;;;;;;33.63;19.40;;;;;;;6.27;100.00;99597.41;1691438;85;21572;-68
2022/01/06 06:01:10;;;;;;;33.85;18.27;;;;;;;6.26;100.00;99594.00;1702882;82;21086;-67
2022/01/06 06:03:37;;;;;;;33.70;17.67;;;;;;;6.27;100.00;99588.47;1723448;82;20997;-68
2022/01/06 06:06:04;;;;;;;35.25;19.17;;;;;;;6.39;100.00;99593.08;1709171;83;21008;-67
2022/01/06 06:08:30;;;;;;;32.20;17.82;;;;;;;6.48;100.00;99595.69;1699214;83;21024;-68
2022/01/06 06:10:58;;;;;;;34.58;20.02;;;;;;;6.44;100.00;99602.64;1708892;83;21563;-68
2022/01/06 06:13:25;;;;;;;35.88;21.12;;;;;;;6.43;100.00;99612.50;1699457;83;21075;-68
2022/01/06 06:15:52;;;;;;;39.33;21.17;;;;;;;6.43;100.00;99616.34;1700113;84;21036;-68
2022/01/06 06:18:19;;;;;;;53.25;27.00;;;;;;;6.51;100.00;99607.05;1673847;84;21029;-68
2022/01/06 06:20:45;;;;;;;50.65;26.33;;;;;;;6.52;100.00;99610.00;1699126;83;21476;-68
2022/01/06 06:23:12;;;;;;;53.75;26.93;;;;;;;6.53;100.00;99609.09;1704341;83;20968;-68
2022/01/06 06:25:40;;;;;;;51.40;26.00;;;;;;;6.58;100.00;99618.23;1697564;83;21059;-68
2022/01/06 06:28:09;;;;;;;30.57;17.73;;;;;;;6.64;100.00;99615.88;1706771;83;21079;-68
2022/01/06 06:30:36;;;;;;;29.95;17.07;;;;;;;6.65;100.00;99617.55;1707835;83;21035;-68
2022/01/06 06:33:03;;;;;;;28.73;17.70;;;;;;;6.69;100.00;99627.18;1713901;83;21644;-68
2022/01/06 06:35:30;;;;;;;30.70;17.00;;;;;;;6.70;100.00;99633.52;1705970;83;21016;-68
2022/01/06 06:37:59;;;;;;;27.40;16.10;;;;;;;6.75;100.00;99628.20;1707594;83;21063;-69
2022/01/06 06:40:26;;;;;;;26.07;15.55;;;;;;;6.73;100.00;99626.16;1704663;83;21007;-68
2022/01/06 06:42:53;;;;;;;25.35;15.20;;;;;;;6.79;100.00;99636.13;1706305;83;21504;-68
2022/01/06 06:45:23;;;;;;;27.05;15.05;;;;;;;6.78;100.00;99638.31;1706640;83;21036;-68
2022/01/06 06:47:51;;;;;;;29.12;16.30;;;;;;;6.68;100.00;99635.77;1678952;83;21128;-68
2022/01/06 06:50:21;;;;;;;32.70;16.85;;;;;;;6.70;100.00;99637.36;1699084;82;21004;-68
2022/01/06 06:52:48;;;;;;;31.27;16.30;;;;;;;6.72;100.00;99636.84;1692985;84;21043;-68
2022/01/06 06:55:15;;;;;;;28.95;16.23;;;;;;;6.72;100.00;99638.13;1691222;85;21074;-68
2022/01/06 06:57:42;;;;;;;32.30;17.98;;;;;;;6.72;100.00;99627.89;1695890;83;21062;-68
2022/01/06 07:00:11;;;;;;;32.35;17.50;;;;;;;6.78;100.00;99617.86;1690804;84;21044;-68
2022/01/06 07:02:38;;;;;;;37.45;19.35;;;;;;;6.79;100.00;99631.87;1692055;84;21091;-68
2022/01/06 07:05:07;;;;;;;33.02;18.05;;;;;;;6.73;100.00;99646.62;1694202;83;21179;-68
2022/01/06 07:07:34;;;;;;;31.10;17.73;;;;;;;6.71;100.00;99648.41;1691556;83;21068;-68
2022/01/06 07:10:03;;;;;;;32.10;17.10;;;;;;;6.68;100.00;99653.67;1693812;84;20992;-68
2022/01/06 07:12:31;;;;;;;37.20;18.90;;;;;;;6.66;100.00;99651.63;1693366;83;21046;-68
2022/01/06 07:15:00;;;;;;;30.32;15.90;;;;;;;6.65;100.00;99649.94;1672539;84;21047;-68
2022/01/06 07:17:27;;;;;;;30.55;15.63;;;;;;;6.62;100.00;99650.91;1693904;84;21082;-67
2022/01/06 07:19:54;;;;;;;29.40;15.50;;;;;;;6.62;100.00;99655.57;1690859;84;21020;-68
2022/01/06 07:22:21;;;;;;;35.43;16.40;;;;;;;6.60;100.00;99647.59;1691845;83;21031;-67
2022/01/06 07:24:47;;;;;;;31.57;15.50;;;;;;;6.62;100.00;99657.30;1691163;83;21110;-67
2022/01/06 07:27:14;;;;;;;34.35;16.90;;;;;;;6.66;100.00;99655.00;1709602;82;21477;-68
2022/01/06 07:29:41;;;;;;;31.95;16.15;;;;;;;6.69;100.00;99646.36;1708007;82;21059;-68
2022/01/06 07:32:08;;;;;;;31.65;15.10;;;;;;;6.77;100.00;99655.40;1699882;81;20991;-68
2022/01/06 07:34:35;;;;;;;29.70;16.35;;;;;;;6.75;100.00;99665.28;1719353;82;21079;-68
2022/01/06 07:37:05;;;;;;;32.45;16.12;;;;;;;6.76;100.00;99669.52;1712083;82;21848;-68
2022/01/06 07:39:32;;;;;;;30.27;15.78;;;;;;;6.79;100.00;99664.27;1710487;82;21064;-68
2022/01/06 07:41:58;;;;;;;28.70;14.95;;;;;;;6.73;100.00;99658.13;1713432;82;21028;-68
2022/01/06 07:44:27;;;;;;;28.07;15.45;;;;;;;6.64;100.00;99664.47;1712177;82;21050;-68
2022/01/06 07:46:54;;;;;;;30.80;16.00;;;;;;;6.67;100.00;99661.80;1726578;82;21543;-68
2022/01/06 07:49:21;;;;;;;32.25;17.12;;;;;;;6.68;100.00;99668.56;1728909;82;21079;-68
2022/01/06 07:51:48;;;;;;;31.48;16.05;;;;;;;6.61;100.00;99665.89;1723385;83;21082;-68
2022/01/06 07:54:15;;;;;;;31.42;17.40;;;;;;;6.50;100.00;99657.36;1705627;82;21062;-68
2022/01/06 07:56:43;;;;;;;27.95;16.10;;;;;;;6.53;100.00;99660.23;1691414;83;21055;-67
2022/01/06 07:59:11;;;;;;;29.95;17.20;;;;;;;6.45;100.00;99652.89;1693252;83;21039;-68
2022/01/06 08:01:39;;;;;;;29.87;16.55;;;;;;;6.45;100.00;99649.06;1702337;82;20977;-68
2022/01/06 08:04:05;;;;;;;40.52;21.00;;;;;;;6.46;100.00;99642.22;1701566;82;21496;-67
2022/01/06 08:06:32;;;;;;;32.73;18.57;;;;;;;6.49;100.00;99645.91;1696743;83;21063;-67
2022/01/06 08:08:59;;;;;;;32.25;17.50;;;;;;;6.51;100.00;99642.41;1691397;83;21040;-67
2022/01/06 08:11:25;;;;;;;31.50;17.37;;;;;;;6.51;100.00;99631.33;1692737;83;21071;-67
2022/01/06 08:13:52;;;;;;;29.65;16.25;;;;;;;6.41;100.00;99625.80;1697005;83;21063;-68
2022/01/06 08:16:19;;;;;;;30.90;16.77;;;;;;;6.54;100.00;99626.93;1715211;83;21036;-69
2022/01/06 08:18:46;;;;;;;27.65;16.32;;;;;;;6.59;100.00;99633.98;1698535;82;21070;-68
2022/01/06 08:21:13;;;;;;;31.00;16.95;;;;;;;6.58;100.00;99637.41;1689758;84;21055;-68
2022/01/06 08:23:39;;;;;;;28.77;16.17;;;;;;;6.60;100.00;99641.20;1695274;83;21527;-68
2022/01/06 08:26:08;;;;;;;26.35;16.12;;;;;;;6.51;100.00;99630.91;1691726;84;21119;-68
2022/01/06 08:28:36;;;;;;;25.85;15.20;;;;;;;6.53;100.00;99634.23;1692299;83;21074;-68
2022/01/06 08:31:03;;;;;;;26.68;15.30;;;;;;;6.51;100.00;99630.91;1692074;83;21583;-68
2022/01/06 08:33:29;;;;;;;25.62;14.80;;;;;;;6.43;100.00;99626.56;1695218;84;21058;-68
2022/01/06 08:35:58;;;;;;;26.37;14.95;;;;;;;6.44;100.00;99629.94;1692127;83;21103;-68
2022/01/06 08:38:25;;;;;;;25.50;14.63;;;;;;;6.49;100.00;99630.56;1693039;83;21044;-68
2022/01/06 08:40:51;;;;;;;28.57;16.10;;;;;;;6.54;100.00;99638.44;1693584;84;21499;-68
2022/01/06 08:43:18;;;;;;;35.52;20.15;;;;;;;6.62;100.00;99650.45;1691005;83;21605;-68
2022/01/06 08:45:45;;;;;;;33.18;18.35;;;;;;;6.80;100.00;99646.76;1691039;83;21559;-68
2022/01/06 08:48:12;;;;;;;33.33;18.62;;;;;;;6.79;100.00;99652.75;1693890;84;21048;-67
2022/01/06 08:50:39;;;;;;;28.65;17.25;;;;;;;6.90;100.00;99666.39;1691329;83;21039;-67
2022/01/06 08:53:05;;;;;;;33.18;17.77;;;;;;;6.92;100.00;99664.14;1692252;84;21524;-68
2022/01/06 08:55:35;;;;;;;30.05;17.30;;;;;;;7.01;100.00;99665.47;1690964;83;21051;-68
2022/01/06 08:58:01;;;;;;;26.62;15.98;;;;;;;7.10;100.00;99674.50;1690940;84;21082;-68
2022/01/06 09:00:30;;;;;;;28.83;16.12;;;;;;;7.09;100.00;99670.27;1692061;84;21035;-68
2022/01/06 09:02:58;;;;;;;30.65;17.35;;;;;;;7.12;100.00;99667.59;1691430;83;21046;-67
2022/01/06 09:05:25;;;;;;;33.78;18.73;;;;;;;7.15;100.00;99662.32;1692084;84;21015;-67
2022/01/06 09:07:52;;;;;;;32.95;18.10;;;;;;;7.18;100.00;99661.74;1690773;83;21087;-67
2022/01/06 09:10:23;;;;;;;38.73;19.82;;;;;;;7.20;100.00;99668.91;1690680;83;21154;-66
2022/01/06 09:12:48;;;;;;;37.95;20.23;;;;;;;7.19;100.00;99676.64;1695455;84;21035;-66
2022/01/06 09:15:15;;;;;;;43.20;22.32;;;;;;;7.17;100.00;99684.38;1669996;84;21528;-66
2022/01/06 09:17:42;;;;;;;42.62;22.22;;;;;;;7.16;100.00;99680.63;1691664;83;21103;-68
2022/01/06 09:20:10;;;;;;;37.10;20.82;;;;;;;6.99;100.00;99683.44;1692492;83;21031;-68
2022/01/06 09:22:37;;;;;;;40.17;22.50;;;;;;;7.00;100.00;99686.85;1690917;83;21607;-68
2022/01/06 09:25:05;;;;;;;36.83;19.75;;;;;;;7.00;100.00;99678.72;1694274;83;21027;-68
2022/01/06 09:27:33;;;;;;;37.10;20.20;;;;;;;7.02;100.00;99678.20;1692198;84;21052;-67
2022/01/06 09:30:00;;;;;;;41.18;21.90;;;;;;;7.06;100.00;99676.81;1691335;85;21023;-66
2022/01/06 09:32:29;;;;;;;53.13;24.37;;;;;;;7.00;100.00;99680.00;1691006;84;21087;-66
2022/01/06 09:34:55;;;;;;;48.10;23.98;;;;;;;7.04;100.00;99671.75;1691118;83;21602;-66
2022/01/06 09:37:23;;;;;;;50.80;24.82;;;;;;;7.08;100.00;99680.13;1690824;84;21056;-66
2022/01/06 09:39:50;;;;;;;47.13;24.12;;;;;;;7.08;100.00;99683.97;1691104;84;21063;-66
2022/01/06 09:42:19;;;;;;;47.00;24.98;;;;;;;7.07;100.00;99681.02;1691035;85;21024;-66
2022/01/06 09:44:49;;;;;;;51.20;25.70;;;;;;;7.04;100.00;99683.27;1695589;84;21020;-67
2022/01/06 09:47:18;;;;;;;47.45;25.57;;;;;;;7.07;100.00;99681.84;1692872;84;21067;-66
2022/01/06 09:49:45;;;;;;;49.98;26.25;;;;;;;7.04;100.00;99683.72;1690887;83;21511;-67
2022/01/06 09:52:13;;;;;;;48.48;25.60;;;;;;;6.96;100.00;99689.16;1693638;84;21125;-66
2022/01/06 09:54:41;;;;;;;48.98;25.57;;;;;;;6.97;100.00;99680.57;1695775;84;21086;-69
2022/01/06 09:57:09;;;;;;;43.50;24.65;;;;;;;7.09;100.00;99689.45;1694599;83;21012;-69
2022/01/06 09:59:35;;;;;;;41.68;23.67;;;;;;;7.02;100.00;99689.72;1693100;84;21023;-69
2022/01/06 10:02:04;;;;;;;44.23;25.00;;;;;;;7.05;100.00;99693.87;1690904;83;21032;-66
2022/01/06 10:04:32;;;;;;;43.10;24.00;;;;;;;7.08;100.00;99692.47;1692089;83;21023;-66
2022/01/06 10:07:08;;;;;;;43.28;23.38;;;;;;;7.07;100.00;99696.37;1692569;83;21532;-69
2022/01/06 10:09:39;;;;;;;46.75;24.15;;;;;;;7.02;100.00;99697.85;1693308;83;21257;-66
2022/01/06 10:12:10;;;;;;;43.55;24.15;;;;;;;7.05;100.00;99689.20;1696769;84;21090;-66
2022/01/06 10:14:47;;;;;;;46.42;25.65;;;;;;;7.11;100.00;99678.25;1693722;84;21059;-67
2022/01/06 10:17:32;;;;;;;43.92;24.37;;;;;;;7.07;100.00;99675.89;1691185;84;21068;-67
2022/01/06 10:20:13;;;;;;;48.08;26.42;;;;;;;6.98;100.00;99677.95;1691492;83;21051;-66
2022/01/06 10:22:49;;;;;;;55.98;28.40;;;;;;;6.97;100.00;99675.45;1691965;84;21036;-66
2022/01/06 10:25:18;;;;;;;50.92;27.30;;;;;;;7.02;100.00;99674.82;1690914;84;21544;-66
2022/01/06 10:27:46;;;;;;;50.03;26.82;;;;;;;7.08;100.00;99669.44;1691100;85;21066;-66
2022/01/06 10:30:14;;;;;;;52.43;28.17;;;;;;;6.98;100.00;99674.12;1694473;84;21082;-67
2022/01/06 10:32:43;;;;;;;53.02;27.42;;;;;;;6.93;100.00;99670.08;1692234;84;21020;-66
2022/01/06 10:35:13;;;;;;;54.10;27.40;;;;;;;7.02;100.00;99674.82;1694291;84;21100;-66
2022/01/06 10:37:43;;;;;;;48.05;25.08;;;;;;;7.12;100.00;99665.03;1693053;84;21079;-67
2022/01/06 10:40:19;;;;;;;49.98;26.50;;;;;;;7.17;100.00;99670.30;1692553;84;21527;-67
2022/01/06 10:42:50;;;;;;;49.38;26.10;;;;;;;7.21;100.00;99676.13;1692083;84;21032;-67
2022/01/06 10:45:24;;;;;;;46.25;25.60;;;;;;;7.19;100.00;99676.19;1691983;84;21071;-66
2022/01/06 10:47:53;;;;;;;47.08;25.57;;;;;;;7.15;100.00;99684.08;1690831;85;21027;-66
2022/01/06 10:50:30;;;;;;;50.40;26.65;;;;;;;7.13;100.00;99682.03;1691638;84;21040;-66
2022/01/06 10:53:07;;;;;;;56.88;29.77;;;;;;;7.04;100.00;99688.84;1691975;84;21050;-66
2022/01/06 10:55:38;;;;;;;47.38;25.17;;;;;;;7.09;100.00;99685.62;1690792;85;21063;-67
2022/01/06 10:58:18;;;;;;;50.60;28.02;;;;;;;7.05;100.00;99684.91;1694050;84;21055;-67
2022/01/06 11:00:49;;;;;;;57.78;28.52;;;;;;;7.07;100.00;99678.45;1694442;83;21024;-67
2022/01/06 11:03:25;;;;;;;54.35;28.83;;;;;;;7.08;100.00;99676.30;1697749;84;21082;-66
2022/01/06 11:05:58;;;;;;;58.95;29.40;;;;;;;7.17;100.00;99678.44;1697074;84;21040;-66
2022/01/06 11:08:31;;;;;;;54.35;27.73;;;;;;;7.09;100.00;99677.48;1691345;85;21008;-67
2022/01/06 11:13:31;;;;;;;49.90;27.02;;;;;;;7.01;100.00;99678.27;1690831;85;21040;-67
2022/01/06 11:15:59;;;;;;;51.18;27.15;;;;;;;7.02;100.00;99684.60;1690926;85;21008;-66
2022/01/06 11:18:27;;;;;;;50.52;26.70;;;;;;;7.02;100.00;99682.50;1692317;83;21531;-67
2022/01/06 11:21:07;;;;;;;48.28;27.32;;;;;;;7.01;100.00;99687.22;1690906;85;21044;-67
2022/01/06 11:23:35;;;;;;;48.73;26.82;;;;;;;7.03;100.00;99686.70;1691211;84;21012;-66
2022/01/06 11:26:13;;;;;;;42.43;24.12;;;;;;;6.93;100.00;99683.70;1690971;85;21110;-66
2022/01/06 11:28:43;;;;;;;43.42;22.85;;;;;;;6.92;100.00;99685.89;1688803;83;21043;-66
2022/01/06 11:31:22;;;;;;;39.05;21.82;;;;;;;6.92;100.00;99694.84;1689521;83;21477;-67
2022/01/06 11:33:56;;;;;;;43.75;24.67;;;;;;;6.89;100.00;99692.40;1698066;84;21059;-67